createdAt,value
2022-12-25T00:01:44.976Z,5.72
2022-12-25T00:11:49.142Z,5.72
2022-12-25T00:21:52.081Z,5.63
2022-12-25T00:31:56.262Z,5.67
2022-12-25T00:42:16.575Z,5.65
2022-12-25T00:52:20.626Z,5.69
2022-12-25T01:02:26.551Z,5.74
2022-12-25T01:12:31.465Z,5.72
2022-12-25T01:22:34.368Z,5.78
2022-12-25T01:32:38.414Z,5.72
2022-12-25T01:42:41.128Z,5.69
2022-12-25T01:52:45.888Z,5.72
2022-12-25T02:02:49.901Z,5.72
2022-12-25T02:12:54.338Z,5.84
2022-12-25T02:23:10.444Z,5.92
2022-12-25T02:33:36.940Z,6.07
2022-12-25T02:44:01.420Z,6.36
2022-12-25T02:54:43.104Z,6.40
2022-12-25T03:05:03.617Z,6.57
2022-12-25T03:15:28.408Z,6.55
2022-12-25T03:25:48.710Z,6.71
2022-12-25T03:36:04.153Z,6.80
2022-12-25T03:46:32.727Z,6.96
2022-12-25T03:56:56.815Z,7.07
2022-12-25T04:07:31.731Z,7.18
2022-12-25T04:17:53.378Z,7.46
2022-12-25T04:28:19.745Z,7.61
2022-12-25T04:38:24.512Z,7.70
2022-12-25T04:48:28.573Z,7.70
2022-12-25T04:58:34.771Z,7.78
2022-12-25T05:08:37.999Z,7.91
2022-12-25T05:18:42.166Z,8.04
2022-12-25T05:28:44.944Z,8.46
2022-12-25T05:38:49.171Z,8.60
2022-12-25T05:48:51.951Z,8.75
2022-12-25T05:58:56.113Z,8.80
2022-12-25T06:08:58.853Z,8.77
2022-12-25T06:19:02.909Z,8.82
2022-12-25T06:29:06.007Z,8.86
2022-12-25T06:39:11.139Z,8.86
2022-12-25T06:49:13.972Z,8.91
2022-12-25T06:59:18.079Z,8.97
2022-12-25T07:09:20.842Z,9.00
2022-12-25T07:19:25.946Z,9.05
2022-12-25T07:29:28.659Z,9.08
2022-12-25T07:39:34.023Z,9.14
2022-12-25T07:49:37.060Z,9.16
2022-12-25T07:59:41.128Z,9.23
2022-12-25T08:09:43.846Z,9.33
2022-12-25T08:19:47.877Z,9.33
2022-12-25T08:29:50.735Z,9.38
2022-12-25T08:39:54.856Z,9.39
2022-12-25T08:49:57.603Z,9.52
2022-12-25T09:00:01.785Z,9.52
2022-12-25T09:10:04.744Z,9.51
2022-12-25T09:20:09.619Z,9.55
2022-12-25T09:30:12.901Z,9.44
2022-12-25T09:40:19.881Z,9.52
2022-12-25T09:50:29.421Z,9.57
2022-12-25T10:00:38.452Z,9.56
2022-12-25T10:10:50.911Z,9.68
2022-12-25T10:20:57.203Z,9.78
2022-12-25T10:31:03.483Z,9.78
2022-12-25T10:41:19.884Z,9.78
2022-12-25T10:51:31.456Z,9.82
2022-12-25T11:01:35.595Z,10.00
2022-12-25T11:11:40.357Z,10.13
2022-12-25T11:21:52.416Z,10.12
2022-12-25T11:31:58.204Z,10.34
2022-12-25T11:42:06.790Z,10.51
2022-12-25T11:52:12.815Z,10.74
2022-12-25T12:02:27.431Z,10.75
2022-12-25T12:12:38.120Z,10.95
2022-12-25T12:22:51.414Z,11.02
2022-12-25T12:32:56.160Z,11.07
2022-12-25T12:43:13.348Z,10.87
2022-12-25T12:53:36.583Z,10.65
2022-12-25T13:04:19.301Z,10.56
2022-12-25T13:14:27.733Z,10.42
2022-12-25T13:24:36.416Z,10.45
2022-12-25T13:34:43.665Z,10.29
2022-12-25T13:44:53.081Z,10.31
2022-12-25T13:54:58.866Z,10.22
2022-12-25T14:05:03.352Z,10.27
2022-12-25T14:15:07.502Z,10.11
2022-12-25T14:25:17.231Z,10.05
2022-12-25T14:35:23.639Z,9.98
2022-12-25T14:45:31.105Z,9.83
2022-12-25T14:55:33.869Z,9.85
2022-12-25T15:05:40.209Z,9.83
2022-12-25T15:15:49.717Z,9.84
2022-12-25T15:25:53.899Z,9.81
2022-12-25T15:35:56.855Z,9.76
2022-12-25T15:46:01.034Z,9.74
2022-12-25T15:56:03.896Z,9.82
2022-12-25T16:06:11.451Z,9.82
2022-12-25T16:16:14.290Z,9.80
2022-12-25T16:26:18.630Z,9.72
2022-12-25T16:36:26.742Z,9.71
2022-12-25T16:46:31.360Z,9.59
2022-12-25T16:56:36.438Z,9.62
2022-12-25T17:06:40.618Z,9.61
2022-12-25T17:16:43.441Z,9.65
2022-12-25T17:26:48.099Z,9.70
2022-12-25T17:36:52.358Z,9.76
2022-12-25T17:46:56.452Z,9.78
2022-12-25T17:56:59.167Z,9.82
2022-12-25T18:07:04.145Z,9.82
2022-12-25T18:17:07.136Z,9.82
2022-12-25T18:27:11.387Z,9.84
2022-12-25T18:37:14.118Z,9.82
2022-12-25T18:47:18.366Z,9.80
2022-12-25T18:58:10.180Z,9.83
2022-12-25T19:08:14.652Z,9.75
2022-12-25T19:18:17.524Z,9.70
2022-12-25T19:28:21.635Z,9.68
2022-12-25T19:38:24.376Z,9.77
2022-12-25T19:48:29.123Z,9.79
2022-12-25T19:58:31.848Z,9.74
2022-12-25T20:08:36.004Z,9.74
2022-12-25T20:18:39.369Z,9.76
2022-12-25T20:28:44.427Z,9.74
2022-12-25T20:38:47.674Z,9.78
2022-12-25T20:48:51.930Z,9.78
2022-12-25T20:58:56.190Z,9.76
2022-12-25T21:09:00.741Z,9.75
2022-12-25T21:19:05.145Z,9.69
2022-12-25T21:29:10.619Z,9.60
2022-12-25T21:39:14.440Z,9.61
2022-12-25T21:49:38.613Z,9.63
2022-12-25T21:59:41.577Z,9.59
2022-12-25T22:09:47.227Z,9.56
2022-12-25T22:19:50.084Z,9.49
2022-12-25T22:29:54.374Z,9.57
2022-12-25T22:39:57.229Z,9.54
2022-12-25T22:50:01.336Z,9.51
2022-12-25T23:00:05.971Z,9.55
2022-12-25T23:10:11.378Z,9.68
2022-12-25T23:20:33.112Z,9.62
2022-12-25T23:30:37.555Z,9.68
2022-12-25T23:40:40.471Z,9.53
2022-12-25T23:50:44.855Z,9.44
